Terminal Aerodrome Forecast
Issued by NWS

Home | Current Version | Previous Version | Graphics & Text | Print | Product List | Glossary On
Versions: 1 2 3 4 5 6 7 8 9 10 11 12 13 14 15 16
000
FTUS43 KMPX 292320
TAFRNH
TAF
KRNH 292320Z 3000/3024 00000KT P6SM SCT250
     FM300800 18003KT 2SM BCFG BKN003
     FM301400 19007KT P6SM BKN006
     FM301600 20010KT P6SM SKC=

USA.gov is the U.S. government's official web portal to all federal, state and local government web resources and services.